createdAt,value
2019-05-13T00:00:34.216Z,9.36
2019-05-13T00:03:03.657Z,9.36
2019-05-13T00:05:33.932Z,9.36
2019-05-13T00:08:03.512Z,9.28
2019-05-13T00:10:34.814Z,9.28
2019-05-13T00:13:04.507Z,9.24
2019-05-13T00:15:34.024Z,9.31
2019-05-13T00:18:03.930Z,9.33
2019-05-13T00:20:33.820Z,9.33
2019-05-13T00:23:03.915Z,9.27
2019-05-13T00:25:33.822Z,9.39
2019-05-13T00:28:04.187Z,9.27
2019-05-13T00:30:34.212Z,9.27
2019-05-13T00:33:03.811Z,9.25
2019-05-13T00:35:33.849Z,9.25
2019-05-13T00:38:03.762Z,9.22
2019-05-13T00:40:33.740Z,9.35
2019-05-13T00:43:03.894Z,9.32
2019-05-13T00:45:33.890Z,9.27
2019-05-13T00:48:04.622Z,9.40
2019-05-13T00:50:33.972Z,9.37
2019-05-13T00:53:04.335Z,9.07
2019-05-13T00:55:34.292Z,9.04
2019-05-13T00:58:04.580Z,9.12
2019-05-13T01:00:34.199Z,9.12
2019-05-13T01:03:04.023Z,8.97
2019-05-13T01:05:34.186Z,9.02
2019-05-13T01:08:04.275Z,9.02
2019-05-13T01:10:34.664Z,8.86
2019-05-13T01:13:04.692Z,8.42
2019-05-13T01:15:34.342Z,9.05
2019-05-13T01:18:03.899Z,9.02
2019-05-13T01:20:34.601Z,9.02
2019-05-13T01:23:03.669Z,8.89
2019-05-13T01:25:33.753Z,8.97
2019-05-13T01:28:04.685Z,8.97
2019-05-13T01:30:34.572Z,9.05
2019-05-13T01:33:04.366Z,9.05
2019-05-13T01:35:34.264Z,9.07
2019-05-13T01:38:04.533Z,9.07
2019-05-13T01:40:34.801Z,8.97
2019-05-13T01:43:04.204Z,9.00
2019-05-13T01:45:33.818Z,9.04
2019-05-13T01:48:06.272Z,9.00
2019-05-13T01:50:33.835Z,9.12
2019-05-13T01:53:04.156Z,8.87
2019-05-13T01:55:33.964Z,8.85
2019-05-13T01:58:04.196Z,8.85
2019-05-13T02:00:35.221Z,8.92
2019-05-13T02:03:03.890Z,8.83
2019-05-13T02:05:33.968Z,8.84
2019-05-13T02:08:04.333Z,8.83
2019-05-13T02:10:53.846Z,8.81
2019-05-13T02:13:24.344Z,8.82
2019-05-13T02:15:54.819Z,8.91
2019-05-13T02:18:24.516Z,8.91
2019-05-13T02:20:55.524Z,8.94
2019-05-13T02:23:24.153Z,8.89
2019-05-13T02:25:54.251Z,8.94
2019-05-13T02:28:24.855Z,8.92
2019-05-13T02:30:56.142Z,8.87
2019-05-13T02:33:24.127Z,8.87
2019-05-13T02:35:53.373Z,9.15
2019-05-13T02:38:26.377Z,8.69
2019-05-13T02:40:53.062Z,8.69
2019-05-13T02:43:23.254Z,9.07
2019-05-13T02:45:53.260Z,9.93
2019-05-13T02:48:23.503Z,9.93
2019-05-13T02:50:53.532Z,8.74
2019-05-13T02:53:23.765Z,8.74
2019-05-13T02:55:52.814Z,8.74
2019-05-13T02:58:24.259Z,8.65
2019-05-13T03:00:53.381Z,9.27
2019-05-13T03:03:23.130Z,8.83
2019-05-13T03:05:52.649Z,8.83
2019-05-13T03:08:35.339Z,8.74
2019-05-13T03:10:53.091Z,8.84
2019-05-13T03:13:23.485Z,8.84
2019-05-13T03:15:53.423Z,8.85
2019-05-13T03:18:22.575Z,8.69
2019-05-13T03:20:52.924Z,9.14
2019-05-13T03:23:22.701Z,9.37
2019-05-13T03:25:53.782Z,9.37
2019-05-13T03:28:22.302Z,9.01
2019-05-13T03:30:56.278Z,9.01
2019-05-13T03:33:27.377Z,8.86
2019-05-13T03:35:55.930Z,8.89
2019-05-13T03:38:22.958Z,10.05
2019-05-13T03:40:52.945Z,9.59
2019-05-13T03:43:22.976Z,9.52
2019-05-13T03:45:52.778Z,9.13
2019-05-13T03:48:23.867Z,9.13
2019-05-13T03:50:53.383Z,9.12
2019-05-13T03:53:23.547Z,9.25
2019-05-13T03:55:54.187Z,9.25
2019-05-13T03:58:24.083Z,9.13
2019-05-13T04:00:52.563Z,9.27
2019-05-13T04:03:22.812Z,9.27
2019-05-13T04:05:52.736Z,9.43
2019-05-13T04:08:22.814Z,9.52
2019-05-13T04:10:52.483Z,9.41
2019-05-13T04:13:23.269Z,9.23
2019-05-13T04:15:53.065Z,9.33
2019-05-13T04:18:23.539Z,9.06
2019-05-13T04:20:52.982Z,9.06
2019-05-13T04:23:23.263Z,9.55
2019-05-13T04:25:53.744Z,9.12
2019-05-13T04:28:22.494Z,9.16
2019-05-13T04:30:52.602Z,9.23
2019-05-13T04:33:22.938Z,9.21
2019-05-13T04:35:52.912Z,9.25
2019-05-13T04:38:22.624Z,9.23
2019-05-13T04:40:52.827Z,9.23
2019-05-13T04:43:23.645Z,9.08
2019-05-13T04:45:52.430Z,9.78
2019-05-13T04:48:22.839Z,9.78
2019-05-13T04:50:53.316Z,9.18
2019-05-13T04:53:22.847Z,9.26
2019-05-13T04:55:52.630Z,9.55
2019-05-13T04:58:23.500Z,9.52
2019-05-13T05:01:02.166Z,9.52
2019-05-13T05:03:46.402Z,9.49
2019-05-13T05:06:44.080Z,9.61
2019-05-13T05:09:40.396Z,9.56
2019-05-13T05:12:17.305Z,9.60
2019-05-13T05:15:08.065Z,9.60
2019-05-13T05:18:02.855Z,9.57
2019-05-13T05:21:01.559Z,9.57
2019-05-13T05:23:51.688Z,9.66
2019-05-13T05:26:55.115Z,9.66
2019-05-13T05:29:27.170Z,12.00
2019-05-13T05:32:02.108Z,9.55
2019-05-13T05:34:51.848Z,9.87
2019-05-13T05:37:45.542Z,9.87
2019-05-13T05:40:27.102Z,9.99
2019-05-13T05:42:44.836Z,10.09
2019-05-13T05:45:13.679Z,10.09
2019-05-13T05:47:43.168Z,9.85
2019-05-13T05:50:12.215Z,10.24
2019-05-13T05:52:42.872Z,10.00
2019-05-13T05:55:11.934Z,10.22
2019-05-13T05:57:42.064Z,10.44
2019-05-13T06:00:11.565Z,10.44
2019-05-13T06:02:42.600Z,10.40
2019-05-13T06:05:12.519Z,10.42
2019-05-13T06:07:42.270Z,11.13
2019-05-13T06:10:11.588Z,10.34
2019-05-13T06:12:42.327Z,11.82
2019-05-13T06:15:12.361Z,10.61
2019-05-13T06:17:41.417Z,10.66
2019-05-13T06:20:13.203Z,10.86
2019-05-13T06:22:42.381Z,11.31
2019-05-13T06:25:14.433Z,11.78
2019-05-13T06:27:42.213Z,11.53
2019-05-13T06:30:12.551Z,11.53
2019-05-13T06:32:41.839Z,11.24
2019-05-13T06:35:11.487Z,11.13
2019-05-13T06:37:41.511Z,11.19
2019-05-13T06:40:12.218Z,11.48
2019-05-13T06:42:41.730Z,11.51
2019-05-13T06:45:12.439Z,11.51
2019-05-13T06:47:41.380Z,11.70
2019-05-13T06:50:11.633Z,11.92
2019-05-13T06:52:42.507Z,11.89
2019-05-13T06:55:11.589Z,11.79
2019-05-13T06:57:42.282Z,12.11
2019-05-13T07:00:12.154Z,12.06
2019-05-13T07:02:42.751Z,11.75
2019-05-13T07:05:12.076Z,11.85
2019-05-13T07:07:42.386Z,12.21
2019-05-13T07:10:12.702Z,12.35
2019-05-13T07:12:41.518Z,12.63
2019-05-13T07:15:11.581Z,12.51
2019-05-13T07:17:41.520Z,12.65
2019-05-13T07:20:11.628Z,12.45
2019-05-13T07:22:42.049Z,13.13
2019-05-13T07:25:11.390Z,12.68
2019-05-13T07:27:42.446Z,12.70
2019-05-13T07:30:11.491Z,13.13
2019-05-13T07:32:42.065Z,13.23
2019-05-13T07:35:14.182Z,13.16
2019-05-13T07:37:42.480Z,13.86
2019-05-13T07:40:11.697Z,13.19
2019-05-13T07:42:41.950Z,13.49
2019-05-13T07:45:12.157Z,13.36
2019-05-13T07:47:41.652Z,13.56
2019-05-13T07:50:12.747Z,14.11
2019-05-13T07:52:42.236Z,13.64
2019-05-13T07:55:11.948Z,13.88
2019-05-13T07:57:42.375Z,13.87
2019-05-13T08:00:12.494Z,15.45
2019-05-13T08:02:41.820Z,12.73
2019-05-13T08:05:12.008Z,13.37
2019-05-13T08:07:42.241Z,13.77
2019-05-13T08:10:11.678Z,14.34
2019-05-13T08:12:41.322Z,14.83
2019-05-13T08:15:11.891Z,13.57
2019-05-13T08:17:44.715Z,13.61
2019-05-13T08:20:12.607Z,13.83
2019-05-13T08:22:42.417Z,12.78
2019-05-13T08:25:12.573Z,13.34
2019-05-13T08:27:42.154Z,13.26
2019-05-13T08:30:12.083Z,12.95
2019-05-13T08:32:41.906Z,13.05
2019-05-13T08:35:12.405Z,13.46
2019-05-13T08:37:41.475Z,13.57
2019-05-13T08:40:12.018Z,13.04
2019-05-13T08:42:41.501Z,13.30
2019-05-13T08:45:12.123Z,13.69
2019-05-13T08:47:41.946Z,14.32
2019-05-13T08:50:12.275Z,13.73
2019-05-13T08:52:42.273Z,13.57
2019-05-13T08:55:15.518Z,14.32
2019-05-13T08:57:42.017Z,13.72
2019-05-13T09:00:13.463Z,13.75
2019-05-13T09:02:41.993Z,14.51
2019-05-13T09:05:12.216Z,14.15
2019-05-13T09:07:41.343Z,14.50
2019-05-13T09:10:12.392Z,14.20
2019-05-13T09:12:43.323Z,15.25
2019-05-13T09:15:11.979Z,15.11
2019-05-13T09:17:42.463Z,14.79
2019-05-13T09:20:11.473Z,14.18
2019-05-13T09:22:41.252Z,14.13
2019-05-13T09:25:12.518Z,14.01
2019-05-13T09:27:42.472Z,14.55
2019-05-13T09:30:11.797Z,14.93
2019-05-13T09:32:42.585Z,14.29
2019-05-13T09:35:11.982Z,14.29
2019-05-13T09:37:42.368Z,15.01
2019-05-13T09:40:11.458Z,14.02
2019-05-13T09:42:49.133Z,14.44
2019-05-13T09:45:12.261Z,14.05
2019-05-13T09:47:41.809Z,15.47
2019-05-13T09:50:28.008Z,14.51
2019-05-13T09:52:42.829Z,14.72
2019-05-13T09:55:25.352Z,14.65
2019-05-13T09:57:41.722Z,14.77
2019-05-13T10:00:12.304Z,14.57
2019-05-13T10:02:42.669Z,14.73
2019-05-13T10:05:11.683Z,14.99
2019-05-13T10:07:42.448Z,14.55
2019-05-13T10:10:12.341Z,14.35
2019-05-13T10:12:42.535Z,14.56
2019-05-13T10:15:12.593Z,14.83
2019-05-13T10:17:42.679Z,15.39
2019-05-13T10:20:12.516Z,14.42
2019-05-13T10:22:41.938Z,15.31
2019-05-13T10:25:13.597Z,15.28
2019-05-13T10:27:42.369Z,14.78
2019-05-13T10:30:12.324Z,15.39
2019-05-13T10:32:42.546Z,15.53
2019-05-13T10:35:11.168Z,16.08
2019-05-13T10:37:41.828Z,15.80
2019-05-13T10:40:11.623Z,16.00
2019-05-13T10:42:43.163Z,15.39
2019-05-13T10:45:12.911Z,15.46
2019-05-13T10:47:42.286Z,15.95
2019-05-13T10:50:10.868Z,16.82
2019-05-13T10:52:39.261Z,16.58
2019-05-13T10:55:07.914Z,16.96
2019-05-13T10:57:36.982Z,16.07
2019-05-13T11:00:12.238Z,16.88
2019-05-13T11:02:41.884Z,16.89
2019-05-13T11:05:12.283Z,16.60
2019-05-13T11:07:42.105Z,16.68
2019-05-13T11:10:13.282Z,16.48
2019-05-13T11:12:41.892Z,17.27
2019-05-13T11:15:11.374Z,15.96
2019-05-13T11:17:42.460Z,16.67
2019-05-13T11:20:12.282Z,17.16
2019-05-13T11:22:39.899Z,16.62
2019-05-13T11:25:11.815Z,17.16
2019-05-13T11:27:41.885Z,16.48
2019-05-13T11:30:09.793Z,16.24
2019-05-13T11:32:38.596Z,15.78
2019-05-13T11:35:07.530Z,15.79
2019-05-13T11:37:36.184Z,15.39
2019-05-13T11:40:06.914Z,15.42
2019-05-13T11:42:35.234Z,15.23
2019-05-13T11:45:05.520Z,15.96
2019-05-13T11:47:34.216Z,15.84
2019-05-13T11:50:02.651Z,16.18
2019-05-13T11:52:31.568Z,16.42
2019-05-13T11:55:02.554Z,16.62
2019-05-13T11:57:31.569Z,16.27
2019-05-13T12:00:02.627Z,16.16
2019-05-13T12:02:32.690Z,15.80
2019-05-13T12:05:03.900Z,16.16
2019-05-13T12:07:32.972Z,16.28
2019-05-13T12:10:02.632Z,16.57
2019-05-13T12:12:34.375Z,16.86
2019-05-13T12:15:28.058Z,16.48
2019-05-13T12:17:33.978Z,16.02
2019-05-13T12:20:03.104Z,16.15
2019-05-13T12:22:33.991Z,16.09
2019-05-13T12:25:02.211Z,16.31
2019-05-13T12:27:31.757Z,16.11
2019-05-13T12:30:03.008Z,15.65
2019-05-13T12:32:32.351Z,15.76
2019-05-13T12:35:03.400Z,15.83
2019-05-13T12:37:33.524Z,15.48
2019-05-13T12:40:03.262Z,15.26
2019-05-13T12:42:33.844Z,15.23
2019-05-13T12:45:09.297Z,15.93
2019-05-13T12:47:31.211Z,14.88
2019-05-13T12:50:02.758Z,14.88
2019-05-13T12:52:32.316Z,14.94
2019-05-13T12:55:03.034Z,15.33
2019-05-13T12:57:31.915Z,15.48
2019-05-13T13:00:02.471Z,15.45
2019-05-13T13:02:32.460Z,15.63
2019-05-13T13:05:10.449Z,15.68
2019-05-13T13:07:32.497Z,15.49
2019-05-13T13:10:00.098Z,16.83
2019-05-13T13:12:34.781Z,16.08
2019-05-13T13:14:58.874Z,16.53
2019-05-13T13:17:27.172Z,16.00
2019-05-13T13:20:04.767Z,16.54
2019-05-13T13:22:25.724Z,15.71
2019-05-13T13:24:57.498Z,15.93
2019-05-13T13:27:47.136Z,15.86
2019-05-13T13:30:02.726Z,16.05
2019-05-13T13:32:24.857Z,15.97
2019-05-13T13:34:55.028Z,15.82
2019-05-13T13:37:23.625Z,15.90
2019-05-13T13:39:55.218Z,15.82
2019-05-13T13:42:22.340Z,15.57
2019-05-13T13:44:53.728Z,15.94
2019-05-13T13:47:23.969Z,15.62
2019-05-13T13:49:53.174Z,16.18
2019-05-13T13:52:22.681Z,15.97
2019-05-13T13:55:01.977Z,16.32
2019-05-13T13:57:25.649Z,16.37
2019-05-13T14:02:25.085Z,16.51
2019-05-13T14:04:53.972Z,16.07
2019-05-13T14:07:33.493Z,15.91
2019-05-13T14:09:51.636Z,15.81
2019-05-13T14:12:21.999Z,15.85
2019-05-13T14:14:52.102Z,15.53
2019-05-13T14:17:21.987Z,15.98
2019-05-13T14:19:52.353Z,16.13
2019-05-13T14:22:21.708Z,16.24
2019-05-13T14:24:51.809Z,15.99
2019-05-13T14:27:22.386Z,16.06
2019-05-13T14:29:52.672Z,16.03
2019-05-13T14:32:22.471Z,16.01
2019-05-13T14:34:52.625Z,16.13
2019-05-13T14:37:22.362Z,15.84
2019-05-13T14:39:50.745Z,15.61
2019-05-13T14:42:19.054Z,16.16
2019-05-13T14:44:47.412Z,15.76
2019-05-13T14:47:15.744Z,15.90
2019-05-13T14:49:44.044Z,16.18
2019-05-13T14:52:12.345Z,15.60
2019-05-13T14:54:42.022Z,15.63
2019-05-13T14:57:14.333Z,15.84
2019-05-13T14:59:41.806Z,15.89
2019-05-13T15:02:11.958Z,16.04
2019-05-13T15:04:41.850Z,16.64
2019-05-13T15:07:12.109Z,16.26
2019-05-13T15:09:42.097Z,15.85
2019-05-13T15:12:10.375Z,16.51
2019-05-13T15:14:40.695Z,16.20
2019-05-13T15:17:08.811Z,16.21
2019-05-13T15:19:37.107Z,15.53
2019-05-13T15:22:05.755Z,15.76
2019-05-13T15:24:34.048Z,15.92
2019-05-13T15:27:02.458Z,15.85
2019-05-13T15:29:31.450Z,15.73
2019-05-13T15:32:02.088Z,16.13
2019-05-13T15:34:31.805Z,16.65
2019-05-13T15:37:01.978Z,16.28
2019-05-13T15:39:31.541Z,16.70
2019-05-13T15:42:01.983Z,16.56
2019-05-13T15:44:32.628Z,17.01
2019-05-13T15:47:03.931Z,16.86
2019-05-13T15:49:32.308Z,16.46
2019-05-13T15:52:01.917Z,17.14
2019-05-13T15:54:32.733Z,18.82
2019-05-13T15:57:02.323Z,18.41
2019-05-13T15:59:31.143Z,16.96
2019-05-13T16:02:02.103Z,18.33
2019-05-13T16:04:29.832Z,16.86
2019-05-13T16:06:58.122Z,17.19
2019-05-13T16:09:26.457Z,17.46
2019-05-13T16:11:55.088Z,17.10
2019-05-13T16:14:23.424Z,16.44
2019-05-13T16:16:51.812Z,16.49
2019-05-13T16:19:22.030Z,15.95
2019-05-13T16:21:51.789Z,16.22
2019-05-13T16:24:21.555Z,16.17
2019-05-13T16:26:52.214Z,16.77
2019-05-13T16:29:22.450Z,16.28
2019-05-13T16:31:51.882Z,16.02
2019-05-13T16:34:22.323Z,15.81
2019-05-13T16:36:53.040Z,16.32
2019-05-13T16:39:21.383Z,16.00
2019-05-13T16:41:51.687Z,16.17
2019-05-13T16:44:22.466Z,16.00
2019-05-13T16:46:51.231Z,15.74
2019-05-13T16:49:21.247Z,15.96
2019-05-13T16:51:51.813Z,15.77
2019-05-13T16:54:21.961Z,15.66
2019-05-13T16:56:51.829Z,16.09
2019-05-13T16:59:21.152Z,16.81
2019-05-13T17:01:51.209Z,16.99
2019-05-13T17:04:21.510Z,16.77
2019-05-13T17:06:49.992Z,17.44
2019-05-13T17:09:18.397Z,19.27
2019-05-13T17:11:48.138Z,19.89
2019-05-13T17:14:16.610Z,20.79
2019-05-13T17:16:45.474Z,21.77
2019-05-13T17:19:15.347Z,23.68
2019-05-13T17:21:44.088Z,20.03
2019-05-13T17:24:12.731Z,18.88
2019-05-13T17:26:41.799Z,19.85
2019-05-13T17:29:12.039Z,19.85
2019-05-13T17:31:41.622Z,17.75
2019-05-13T17:34:12.110Z,17.39
2019-05-13T17:36:41.884Z,17.62
2019-05-13T17:39:12.612Z,17.42
2019-05-13T17:41:41.628Z,16.27
2019-05-13T17:44:11.641Z,16.58
2019-05-13T17:46:41.922Z,16.99
2019-05-13T17:49:11.832Z,16.72
2019-05-13T17:51:42.464Z,16.24
2019-05-13T17:54:11.852Z,16.29
2019-05-13T17:56:40.778Z,15.77
2019-05-13T17:59:11.421Z,16.14
2019-05-13T18:01:41.229Z,15.96
2019-05-13T18:04:11.826Z,15.43
2019-05-13T18:06:41.759Z,14.99
2019-05-13T18:09:11.975Z,14.83
2019-05-13T18:11:41.731Z,14.62
2019-05-13T18:14:11.407Z,14.07
2019-05-13T18:16:41.983Z,13.95
2019-05-13T18:19:11.977Z,13.62
2019-05-13T18:21:42.423Z,13.25
2019-05-13T18:24:11.906Z,13.16
2019-05-13T18:26:41.948Z,13.14
2019-05-13T18:29:12.260Z,13.19
2019-05-13T18:31:42.046Z,12.90
2019-05-13T18:34:12.207Z,12.74
2019-05-13T18:36:42.679Z,12.76
2019-05-13T18:39:12.332Z,12.65
2019-05-13T18:41:41.354Z,12.62
2019-05-13T18:44:12.137Z,12.46
2019-05-13T18:46:41.701Z,12.58
2019-05-13T18:49:12.006Z,12.42
2019-05-13T18:51:42.203Z,12.30
2019-05-13T18:54:11.910Z,12.31
2019-05-13T18:56:41.551Z,12.84
2019-05-13T18:59:12.439Z,12.80
2019-05-13T19:01:40.255Z,12.88
2019-05-13T19:04:08.645Z,12.77
2019-05-13T19:06:36.951Z,12.54
2019-05-13T19:09:07.039Z,12.06
2019-05-13T19:11:35.409Z,12.38
2019-05-13T19:14:03.933Z,12.39
2019-05-13T19:16:32.466Z,12.19
2019-05-13T19:19:11.897Z,12.22
2019-05-13T19:21:31.336Z,12.11
2019-05-13T19:24:01.878Z,12.03
2019-05-13T19:26:30.267Z,12.13
2019-05-13T19:28:58.704Z,12.00
2019-05-13T19:31:27.009Z,11.97
2019-05-13T19:33:55.421Z,11.91
2019-05-13T19:36:23.740Z,11.83
2019-05-13T19:38:52.065Z,11.72
2019-05-13T19:41:22.270Z,11.75
2019-05-13T19:43:51.074Z,11.68
2019-05-13T19:46:19.497Z,11.68
2019-05-13T19:48:47.804Z,11.75
2019-05-13T19:51:16.519Z,11.87
2019-05-13T19:53:45.122Z,11.86
2019-05-13T19:56:13.798Z,11.81
2019-05-13T19:58:42.371Z,11.69
2019-05-13T20:01:11.660Z,11.69
2019-05-13T20:03:42.330Z,11.57
2019-05-13T20:06:12.231Z,11.70
2019-05-13T20:08:41.354Z,11.85
2019-05-13T20:11:11.463Z,11.58
2019-05-13T20:13:41.757Z,11.58
2019-05-13T20:16:11.728Z,11.61
2019-05-13T20:18:41.448Z,11.80
2019-05-13T20:21:11.169Z,13.15
2019-05-13T20:23:41.463Z,12.64
2019-05-13T20:26:10.037Z,11.54
2019-05-13T20:28:38.430Z,11.59
2019-05-13T20:31:06.894Z,11.44
2019-05-13T20:33:39.422Z,11.45
2019-05-13T20:36:05.417Z,11.59
2019-05-13T20:38:33.717Z,11.28
2019-05-13T20:41:02.106Z,11.38
2019-05-13T20:43:32.809Z,11.36
2019-05-13T20:46:02.034Z,11.45
2019-05-13T20:48:32.045Z,11.37
2019-05-13T20:51:02.562Z,10.88
2019-05-13T20:53:31.131Z,11.07
2019-05-13T20:56:01.685Z,11.15
2019-05-13T20:58:31.796Z,11.36
2019-05-13T21:01:02.441Z,11.53
2019-05-13T21:03:31.632Z,11.78
2019-05-13T21:06:00.636Z,11.39
2019-05-13T21:08:29.008Z,11.93
2019-05-13T21:10:57.597Z,11.60
2019-05-13T21:13:25.892Z,11.11
2019-05-13T21:15:54.297Z,11.04
2019-05-13T21:18:22.954Z,11.09
2019-05-13T21:20:51.657Z,11.39
2019-05-13T21:23:21.784Z,11.43
2019-05-13T21:25:51.067Z,11.41
2019-05-13T21:28:22.052Z,12.53
2019-05-13T21:30:51.471Z,12.86
2019-05-13T21:33:22.161Z,12.94
2019-05-13T21:35:51.190Z,11.14
2019-05-13T21:38:22.265Z,11.90
2019-05-13T21:40:52.074Z,11.57
2019-05-13T21:43:21.601Z,11.12
2019-05-13T21:45:52.091Z,11.07
2019-05-13T21:48:21.708Z,12.41
2019-05-13T21:50:51.588Z,11.68
2019-05-13T21:53:21.719Z,11.33
2019-05-13T21:55:52.036Z,11.10
2019-05-13T21:58:22.257Z,11.48
2019-05-13T22:00:51.977Z,11.03
2019-05-13T22:03:20.834Z,11.32
2019-05-13T22:05:51.281Z,11.58
2019-05-13T22:08:21.413Z,11.33
2019-05-13T22:10:49.438Z,12.33
2019-05-13T22:13:17.744Z,11.63
2019-05-13T22:15:46.059Z,11.47
2019-05-13T22:18:14.365Z,11.53
2019-05-13T22:20:49.771Z,11.54
2019-05-13T22:23:12.862Z,12.08
2019-05-13T22:25:43.650Z,11.24
2019-05-13T22:28:11.811Z,11.10
2019-05-13T22:30:41.223Z,11.15
2019-05-13T22:33:12.136Z,11.13
2019-05-13T22:35:41.616Z,11.33
2019-05-13T22:38:12.035Z,11.48
2019-05-13T22:40:41.779Z,12.37
2019-05-13T22:43:12.110Z,12.16
2019-05-13T22:45:41.932Z,11.62
2019-05-13T22:48:14.612Z,11.28
2019-05-13T22:50:41.566Z,11.36
2019-05-13T22:53:12.030Z,11.49
2019-05-13T22:55:41.779Z,11.97
2019-05-13T22:58:10.378Z,12.33
2019-05-13T23:00:38.764Z,11.00
2019-05-13T23:03:07.063Z,11.00
2019-05-13T23:05:35.379Z,10.94
2019-05-13T23:08:03.692Z,11.99
2019-05-13T23:10:32.092Z,11.58
2019-05-13T23:13:02.184Z,12.29
2019-05-13T23:15:30.750Z,12.57
2019-05-13T23:18:01.159Z,12.18
2019-05-13T23:20:31.581Z,11.70
2019-05-13T23:23:01.242Z,11.35
2019-05-13T23:25:31.840Z,11.30
2019-05-13T23:27:59.530Z,11.89
2019-05-13T23:30:27.898Z,10.81
2019-05-13T23:32:56.215Z,10.53
2019-05-13T23:35:24.537Z,10.76
2019-05-13T23:37:52.849Z,10.61
2019-05-13T23:40:21.410Z,10.73
2019-05-13T23:42:51.787Z,10.57
2019-05-13T23:45:21.683Z,10.46
2019-05-13T23:47:51.010Z,10.39
2019-05-13T23:50:21.523Z,9.98
2019-05-13T23:52:51.185Z,10.50
2019-05-13T23:55:19.729Z,11.34
2019-05-13T23:57:48.043Z,11.10
